Time;durP1;ratioP1;P1;durP2;ratioP2;P2;SDS_P1;SDS_P2;PMS_P1;PMS_P2;Temp;Humidity;BMP_temperature;BMP_pressure;BME280_temperature;BME280_humidity;BME280_pressure;Samples;Min_cycle;Max_cycle;Signal;HPM_P1;HPM_P2
2021/05/06 00:33:13;;;;;;;2.10;0.60;;;3.90;99.90;;;;;;21160294;28;20111;-44
2021/05/06 01:14:05;;;;;;;1.17;0.50;;;4.60;99.90;;;;;;21140427;28;20481;-44
2021/05/06 01:24:07;;;;;;;1.63;0.50;;;4.30;99.90;;;;;;21139099;28;20084;-44
2021/05/06 01:34:19;;;;;;;0.82;0.50;;;4.20;99.90;;;;;;21138425;28;20039;-44
2021/05/06 02:05:04;;;;;;;0.73;0.30;;;4.50;99.90;;;;;;21172484;28;20112;-46
2021/05/06 02:15:14;;;;;;;1.13;0.40;;;4.10;99.90;;;;;;21171793;28;20061;-45
2021/05/06 02:25:17;;;;;;;1.35;0.22;;;3.80;99.90;;;;;;21152887;28;20389;-44
2021/05/06 02:35:19;;;;;;;0.88;0.32;;;4.00;99.90;;;;;;21170311;28;20420;-46
2021/05/06 02:45:21;;;;;;;0.43;0.35;;;3.90;99.90;;;;;;21169437;28;20032;-46
2021/05/06 03:05:50;;;;;;;0.50;0.30;;;4.00;99.90;;;;;;21076024;28;20056;-44
2021/05/06 03:26:13;;;;;;;1.55;0.43;;;3.40;99.90;;;;;;21080678;28;20032;-45
2021/05/06 04:27:40;;;;;;;0.60;0.20;;;4.00;99.90;;;;;;21161224;28;20120;-44
2021/05/06 04:37:44;;;;;;;0.75;0.20;;;4.00;99.40;;;;;;21160694;28;20035;-47
2021/05/06 05:08:40;;;;;;;0.68;0.35;;;4.50;99.90;;;;;;21073537;28;20048;-44
2021/05/06 05:28:44;;;;;;;0.85;0.30;;;4.80;99.90;;;;;;21072826;28;20044;-47
2021/05/06 05:59:18;;;;;;;0.57;0.35;;;4.20;99.90;;;;;;21127917;28;20101;-45
2021/05/06 06:09:20;;;;;;;2.40;0.50;;;5.00;99.90;;;;;;21070935;28;20036;-44
2021/05/06 06:19:29;;;;;;;0.45;0.30;;;6.10;99.90;;;;;;21070482;28;20477;-45
2021/05/06 06:29:33;;;;;;;0.40;0.20;;;7.20;99.90;;;;;;21070169;28;20057;-45
2021/05/06 06:39:39;;;;;;;1.38;0.60;;;12.80;82.90;;;;;;21085432;28;20036;-45
2021/05/06 06:49:42;;;;;;;2.63;2.13;;;12.40;83.30;;;;;;21066820;28;20376;-45
2021/05/06 06:59:43;;;;;;;4.53;2.80;;;12.00;91.90;;;;;;21114124;28;20112;-46
2021/05/06 07:09:45;;;;;;;8.55;5.18;;;13.70;92.40;;;;;;21149014;28;20477;-45
2021/05/06 07:19:47;;;;;;;8.63;7.05;;;15.30;91.80;;;;;;21166637;28;20089;-45
2021/05/06 07:29:49;;;;;;;11.43;9.48;;;14.50;95.00;;;;;;21165858;28;20047;-45
2021/05/06 07:39:50;;;;;;;14.98;8.77;;;14.70;96.90;;;;;;21165067;28;20047;-45
2021/05/06 07:49:52;;;;;;;8.98;6.28;;;14.90;98.30;;;;;;21163115;28;20039;-46
2021/05/06 07:59:54;;;;;;;9.50;6.53;;;15.70;97.50;;;;;;21163829;28;20048;-46
2021/05/06 08:09:55;;;;;;;5.18;3.97;;;16.00;95.30;;;;;;21162724;28;20546;-45
2021/05/06 08:19:58;;;;;;;3.42;2.03;;;15.20;95.00;;;;;;21143673;28;20039;-46
2021/05/06 08:30:00;;;;;;;6.13;4.55;;;15.30;94.50;;;;;;21100899;28;20077;-46
2021/05/06 08:40:04;;;;;;;6.25;3.80;;;15.60;94.30;;;;;;21075917;28;20036;-48
2021/05/06 08:50:07;;;;;;;4.30;2.55;;;17.00;94.60;;;;;;21077431;28;20055;-46
2021/05/06 09:00:10;;;;;;;5.75;3.78;;;18.20;92.80;;;;;;21108264;28;20047;-46
2021/05/06 09:10:31;;;;;;;9.02;6.13;;;18.00;93.20;;;;;;21158269;28;20100;-46
2021/05/06 09:20:40;;;;;;;7.47;5.28;;;18.20;92.70;;;;;;21157451;28;20062;-47
2021/05/06 09:30:51;;;;;;;5.20;4.50;;;18.20;92.60;;;;;;21156991;28;20039;-47
2021/05/06 09:40:53;;;;;;;6.05;3.85;;;18.80;93.20;;;;;;21156519;28;20448;-46
2021/05/06 09:51:03;;;;;;;7.72;4.32;;;17.80;90.60;;;;;;21155765;28;20035;-46
2021/05/06 10:01:14;;;;;;;6.35;3.55;;;17.40;93.40;;;;;;21113279;28;20044;-46
2021/05/06 10:11:20;;;;;;;5.45;3.70;;;16.80;90.20;;;;;;21081773;28;20044;-45
2021/05/06 10:21:22;;;;;;;8.43;5.28;;;15.00;92.70;;;;;;21086948;28;20032;-46
2021/05/06 10:31:24;;;;;;;7.97;5.45;;;15.00;95.80;;;;;;21086314;28;20032;-47
2021/05/06 10:41:35;;;;;;;7.15;5.40;;;13.90;97.30;;;;;;21085557;28;20040;-45
2021/05/06 10:51:50;;;;;;;9.95;5.40;;;12.30;99.90;;;;;;21085149;28;20036;-45
2021/05/06 11:01:52;;;;;;;7.65;5.22;;;11.70;99.90;;;;;;21132880;28;20048;-46
2021/05/06 11:12:36;;;;;;;11.73;6.28;;;12.20;99.90;;;;;;21167619;28;20031;-45
2021/05/06 11:22:46;;;;;;;8.57;6.53;;;12.10;99.90;;;;;;20958478;28;20550;-45
2021/05/06 11:32:50;;;;;;;9.07;5.93;;;13.00;99.90;;;;;;21165916;28;20393;-45
2021/05/06 11:42:53;;;;;;;10.07;6.03;;;13.70;99.90;;;;;;21165087;28;20039;-45
2021/05/06 11:52:59;;;;;;;7.75;5.25;;;13.40;99.90;;;;;;21146099;28;20035;-45
2021/05/06 12:03:09;;;;;;;9.63;5.00;;;14.00;99.90;;;;;;21145157;28;20496;-45
2021/05/06 12:13:11;;;;;;;;;;;13.40;99.90;;;;;;21163404;28;20039;-45
2021/05/06 12:23:12;;;;;;;8.27;4.68;;;13.10;99.90;;;;;;21161629;28;19949;-45
2021/05/06 12:33:31;;;;;;;7.03;4.57;;;13.60;99.90;;;;;;21161125;28;20039;-45
2021/05/06 12:43:34;;;;;;;9.23;3.95;;;13.40;99.90;;;;;;21160511;28;20037;-46
2021/05/06 12:53:37;;;;;;;7.72;3.75;;;13.30;99.90;;;;;;21159256;28;20077;-45
2021/05/06 13:03:44;;;;;;;6.68;3.28;;;12.60;99.90;;;;;;21158563;28;20052;-45
2021/05/06 13:13:49;;;;;;;11.75;3.97;;;12.70;99.90;;;;;;21158381;28;20080;-45
2021/05/06 13:23:55;;;;;;;10.30;3.85;;;13.20;99.90;;;;;;21157511;28;20035;-44
2021/05/06 13:34:18;;;;;;;5.72;4.03;;;12.70;99.90;;;;;;21156950;28;20089;-48
2021/05/06 13:44:25;;;;;;;10.27;5.00;;;12.30;99.90;;;;;;21143869;28;20052;-45
2021/05/06 13:54:28;;;;;;;8.02;3.90;;;12.20;99.90;;;;;;21155911;28;20089;-45
2021/05/06 14:04:29;;;;;;;8.93;4.13;;;12.20;99.90;;;;;;21155493;28;20055;-45
2021/05/06 14:14:31;;;;;;;13.13;5.13;;;12.10;99.90;;;;;;21155322;28;20416;-45
2021/05/06 14:24:34;;;;;;;9.32;5.57;;;11.60;99.90;;;;;;21155027;28;20073;-45
2021/05/06 14:34:36;;;;;;;8.43;5.60;;;11.10;99.90;;;;;;21154520;28;20053;-45
2021/05/06 14:44:38;;;;;;;10.68;6.03;;;10.90;99.90;;;;;;21154304;28;20085;-45
2021/05/06 14:54:39;;;;;;;13.82;6.03;;;10.80;99.90;;;;;;21102537;28;20036;-44
2021/05/06 15:04:41;;;;;;;9.57;5.88;;;10.60;99.90;;;;;;21155319;28;20040;-45
2021/05/06 15:14:43;;;;;;;13.18;7.07;;;10.70;99.90;;;;;;21167254;28;20081;-45
2021/05/06 15:24:46;;;;;;;11.88;6.40;;;10.30;99.90;;;;;;21167187;28;20077;-45
2021/05/06 15:34:50;;;;;;;10.55;6.13;;;9.70;99.90;;;;;;21166194;28;20046;-46
2021/05/06 15:44:51;;;;;;;11.88;5.95;;;9.60;99.90;;;;;;21165160;28;20485;-45
2021/05/06 15:54:53;;;;;;;12.27;6.18;;;9.80;99.90;;;;;;21164544;28;20028;-45
2021/05/06 16:04:55;;;;;;;14.95;5.55;;;9.80;99.90;;;;;;21162484;28;20051;-46
2021/05/06 16:14:59;;;;;;;13.13;6.18;;;9.80;99.90;;;;;;21162032;28;20035;-45
2021/05/06 16:25:00;;;;;;;12.85;6.45;;;9.80;99.90;;;;;;21161704;28;20396;-45
2021/05/06 16:35:06;;;;;;;12.48;6.60;;;9.50;99.90;;;;;;21142608;28;20028;-45
2021/05/06 16:45:08;;;;;;;11.75;6.72;;;9.20;99.90;;;;;;21161352;28;20076;-46
2021/05/06 16:55:10;;;;;;;14.73;7.63;;;9.10;99.90;;;;;;21141093;28;20435;-45
2021/05/06 17:05:12;;;;;;;13.82;6.68;;;9.00;99.90;;;;;;21158518;28;20069;-44
2021/05/06 17:15:17;;;;;;;16.77;7.65;;;8.90;99.90;;;;;;21157689;28;20039;-47
2021/05/06 17:25:21;;;;;;;11.10;6.68;;;8.90;99.90;;;;;;21157230;28;20040;-45
2021/05/06 17:35:23;;;;;;;13.60;7.07;;;8.70;99.90;;;;;;21156761;28;20031;-45
2021/05/06 17:45:25;;;;;;;13.50;7.05;;;8.70;99.90;;;;;;21156262;28;20384;-46
2021/05/06 17:55:30;;;;;;;11.95;7.57;;;8.70;99.90;;;;;;21137151;28;20035;-45
2021/05/06 18:05:32;;;;;;;17.45;8.27;;;8.70;99.90;;;;;;21076286;28;20055;-45
2021/05/06 18:15:34;;;;;;;19.65;10.55;;;8.60;99.90;;;;;;21070565;28;20040;-45
2021/05/06 18:25:36;;;;;;;17.80;9.57;;;8.50;99.90;;;;;;21070454;28;20048;-45
2021/05/06 18:35:38;;;;;;;19.27;9.65;;;8.50;99.90;;;;;;21085845;28;20218;-45
2021/05/06 18:45:40;;;;;;;15.60;9.18;;;8.40;99.90;;;;;;21085405;28;20039;-45
2021/05/06 18:55:42;;;;;;;19.73;8.73;;;8.40;99.90;;;;;;21084869;28;20180;-45
2021/05/06 19:05:47;;;;;;;14.20;9.45;;;8.30;99.90;;;;;;21164786;28;20051;-45
2021/05/06 19:15:53;;;;;;;14.85;7.03;;;8.30;99.90;;;;;;21167003;28;20051;-45
2021/05/06 19:25:55;;;;;;;13.20;7.10;;;8.30;99.90;;;;;;21166662;28;20043;-46
2021/05/06 19:35:58;;;;;;;12.68;5.97;;;8.20;99.90;;;;;;21165762;28;20027;-45
2021/05/06 19:46:21;;;;;;;17.77;7.07;;;8.20;99.90;;;;;;21164916;28;20549;-45
2021/05/06 19:56:24;;;;;;;13.15;7.22;;;8.20;99.90;;;;;;21164575;28;20080;-45
2021/05/06 20:06:26;;;;;;;12.57;7.15;;;8.20;99.90;;;;;;21163573;28;20039;-46
2021/05/06 20:16:27;;;;;;;14.65;8.20;;;8.10;99.90;;;;;;21162706;28;20031;-45
2021/05/06 20:26:29;;;;;;;20.25;7.55;;;8.10;99.90;;;;;;21161554;28;20069;-46
2021/05/06 20:36:32;;;;;;;19.17;9.38;;;8.10;99.90;;;;;;21161076;28;20031;-45
2021/05/06 20:46:40;;;;;;;18.92;9.32;;;8.00;99.90;;;;;;21160215;28;20027;-45
2021/05/06 20:56:43;;;;;;;17.20;8.88;;;8.00;99.90;;;;;;21158803;28;20506;-45
2021/05/06 21:06:45;;;;;;;15.88;8.73;;;8.00;99.90;;;;;;21158870;28;20036;-45
2021/05/06 21:16:48;;;;;;;15.85;9.02;;;7.90;99.90;;;;;;21157774;28;20061;-45
2021/05/06 21:26:52;;;;;;;17.30;9.70;;;7.90;99.90;;;;;;21157188;28;20057;-46
2021/05/06 21:36:54;;;;;;;21.40;10.80;;;7.80;99.90;;;;;;21157914;28;20039;-45
2021/05/06 21:47:05;;;;;;;16.85;9.02;;;7.80;99.90;;;;;;21156252;28;20044;-45
2021/05/06 21:57:07;;;;;;;15.83;9.73;;;7.80;99.90;;;;;;21147078;28;20044;-45
2021/05/06 22:07:08;;;;;;;19.17;8.32;;;7.80;99.90;;;;;;21081980;28;20032;-45
2021/05/06 22:17:10;;;;;;;19.63;10.15;;;7.80;99.90;;;;;;21087758;28;20176;-45
2021/05/06 22:27:13;;;;;;;17.45;9.18;;;7.90;99.90;;;;;;21086929;28;20108;-47
2021/05/06 22:37:16;;;;;;;42.42;11.27;;;7.80;99.90;;;;;;21086264;28;20397;-45
2021/05/06 22:47:18;;;;;;;118.70;16.58;;;7.80;99.90;;;;;;21085400;28;20078;-45
2021/05/06 22:57:20;;;;;;;383.30;32.92;;;7.70;99.90;;;;;;21093612;28;20043;-45
2021/05/06 23:07:22;;;;;;;95.57;14.75;;;7.70;99.90;;;;;;21163484;28;20039;-46
2021/05/06 23:17:24;;;;;;;27.73;11.23;;;7.70;99.90;;;;;;21162266;28;20043;-47
2021/05/06 23:27:26;;;;;;;16.02;8.48;;;7.80;99.90;;;;;;21162617;28;20031;-45
2021/05/06 23:37:28;;;;;;;14.73;8.15;;;7.80;99.90;;;;;;21161276;28;20527;-48
2021/05/06 23:47:31;;;;;;;11.75;7.60;;;7.90;99.90;;;;;;21160620;28;20032;-45
2021/05/06 23:57:32;;;;;;;15.03;8.17;;;8.00;99.90;;;;;;21135641;28;731347;-45
